This is the latest recevied weather packets stored in our database for station/object N3WMC. If no packets are shown the sender has not sent any weather packets the latest 1 day(s).
| Time | Temp. | Humidity | Pressure | Rain* | Wind** | Luminosity | Snow |
|---|---|---|---|---|---|---|---|
| 1778019218 | 22.22° C | 52% | 1008.7 hPa | 0 mm | 2.68 m/s, 296° | 101 W/m² | - |
| 1778018915 | 22.22° C | 52% | 1008.8 hPa | 0 mm | 2.24 m/s, 246° | 106 W/m² | - |
| 1778018612 | 22.22° C | 54% | 1008.6 hPa | 0 mm | 1.34 m/s, 317° | 110 W/m² | - |
| 1778018310 | 22.22° C | 53% | 1008.6 hPa | 0 mm | 4.02 m/s, 262° | 126 W/m² | - |
| 1778018008 | 22.22° C | 54% | 1008.5 hPa | 0 mm | 1.79 m/s, 259° | 133 W/m² | - |
| 1778017706 | 22.22° C | 55% | 1008.3 hPa | 0 mm | 1.79 m/s, 241° | 135 W/m² | - |
| 1778017403 | 22.22° C | 56% | 1008.4 hPa | 0 mm | 2.24 m/s, 255° | 143 W/m² | - |
| 1778017100 | 21.67° C | 57% | 1008.4 hPa | 0 mm | 1.79 m/s, 250° | 137 W/m² | - |
| 1778016798 | 21.67° C | 58% | 1008.5 hPa | 0 mm | 0.89 m/s, 319° | 123 W/m² | - |
| 1778016493 | 21.67° C | 58% | 1008.4 hPa | 0 mm | 1.79 m/s, 309° | 120 W/m² | - |
| 1778016191 | 21.67° C | 58% | 1008.4 hPa | 0 mm | 2.24 m/s, 39° | 109 W/m² | - |
| 1778015887 | 21.67° C | 60% | 1008.4 hPa | 0 mm | 1.34 m/s, 356° | 113 W/m² | - |
| 1778015585 | 21.67° C | 61% | 1008.5 hPa | 0 mm | 0.45 m/s, 333° | 112 W/m² | - |
| 1778015281 | 21.67° C | 61% | 1008.6 hPa | 0 mm | 0.45 m/s, 185° | 194 W/m² | - |
| 1778014978 | 21.11° C | 63% | 1008.4 hPa | 0 mm | 0.89 m/s, 282° | 197 W/m² | - |
| 1778014675 | 20.56° C | 64% | 1008.7 hPa | 0 mm | 0.89 m/s, 273° | 216 W/m² | - |
| 1778014373 | 20.56° C | 64% | 1008.8 hPa | 0 mm | 1.79 m/s, 291° | 68 W/m² | - |
| 1778014069 | 21.11° C | 62% | 1008.7 hPa | 0 mm | 0.89 m/s, 344° | 23 W/m² | - |
| 1778013767 | 22.22° C | 52% | 1008.6 hPa | 0 mm | 0.89 m/s, 314° | 23 W/m² | - |
| 1778013464 | 22.78° C | 51% | 1008.5 hPa | 0 mm | 1.34 m/s, 339° | 22 W/m² | - |
| 1778013161 | 22.78° C | 49% | 1008.4 hPa | 0 mm | 1.34 m/s, 278° | 66 W/m² | - |
| 1778012857 | 22.78° C | 50% | 1008.4 hPa | 0 mm | 0.89 m/s, 326° | 121 W/m² | - |
| 1778012553 | 22.78° C | 50% | 1008.5 hPa | 0 mm | 2.68 m/s, 225° | 137 W/m² | - |
| 1778012250 | 22.78° C | 50% | 1008.6 hPa | 0 mm | 3.13 m/s, 30° | 148 W/m² | - |
| 1778011948 | 22.78° C | 50% | 1008.4 hPa | 0 mm | 1.34 m/s, 291° | 143 W/m² | - |
* Rain latest hour (hover to see other rain measurements)
** Current wind speed in m/s (hover to see current wind gust speed)